Southeast, Michigan
Current Conditions -  °F | °C
As of 4:53 PM on Tuesday 25 Nov 2014 (Local Time) from KFNT Reporting Station
Overcast Overcast  
Wind Chill: 25°   Ceiling: 2600
Heat Index: 33°   Visibility: 10mi
Dew Point: 24°   Wind: 10mph
Humidity: 70%   Direction: 250°WSW
Pressure: 30.08"   Gusts: NA
Location:  42.972°N, 83.6629°W
Report Text: KFNT 252153Z 25009KT 10SM BKN026 OVC034 01/M04 A3008 RMK AO2 SLP193 T00061044
Loading
Personal Weather Stations






























Interactive Weather Map New forecast layout! Learn more

10-Day Weather Forecast

Advertisements
Track Severe Weather on mobile